createdAt,value
2022-08-23T00:02:02.966Z,99967.03
2022-08-23T00:04:35.310Z,99969.02
2022-08-23T00:07:05.708Z,99970.84
2022-08-23T00:09:34.586Z,99960.99
2022-08-23T00:12:07.624Z,99967.01
2022-08-23T00:14:38.440Z,99973.02
2022-08-23T00:17:10.060Z,99971.84
2022-08-23T00:19:39.830Z,99972.18
2022-08-23T00:22:09.713Z,99970.02
2022-08-23T00:24:40.938Z,99971.52
2022-08-23T00:27:16.659Z,99969.53
2022-08-23T00:29:48.684Z,99967.67
2022-08-23T00:32:18.917Z,99977.55
2022-08-23T00:34:47.902Z,99970.34
2022-08-23T00:37:17.958Z,99976.71
2022-08-23T00:39:47.829Z,99977.69
2022-08-23T00:42:52.912Z,99978.55
2022-08-23T00:45:40.876Z,99972.52
2022-08-23T00:48:09.946Z,99970.69
2022-08-23T00:50:40.886Z,99963.66
2022-08-23T00:53:12.177Z,99964.32
2022-08-23T00:55:42.934Z,99956.31
2022-08-23T00:58:13.601Z,99953.80
2022-08-23T01:00:42.344Z,99952.64
2022-08-23T01:03:12.981Z,99949.27
2022-08-23T01:06:00.204Z,99955.98
2022-08-23T01:08:30.465Z,99953.47
2022-08-23T01:11:00.753Z,99945.76
2022-08-23T01:13:31.115Z,99948.63
2022-08-23T01:16:01.456Z,99947.78
2022-08-23T01:18:31.664Z,99948.28
2022-08-23T01:21:19.373Z,99951.61
2022-08-23T01:23:56.479Z,99949.59
2022-08-23T01:26:26.659Z,99951.10
2022-08-23T01:28:55.850Z,99955.28
2022-08-23T01:31:25.513Z,99956.61
2022-08-23T01:33:55.798Z,99947.75
2022-08-23T01:36:25.708Z,99952.09
2022-08-23T01:38:55.655Z,99951.77
2022-08-23T01:41:24.527Z,99949.45
2022-08-23T01:43:53.650Z,99960.98
2022-08-23T01:46:26.189Z,99958.95
2022-08-23T01:48:55.798Z,99954.44
2022-08-23T01:51:26.052Z,99959.77
2022-08-23T01:53:55.052Z,99970.48
2022-08-23T01:56:38.266Z,99990.67
2022-08-23T01:58:57.653Z,99996.93
2022-08-23T02:01:30.839Z,100018.62
2022-08-23T02:04:05.043Z,100044.98
2022-08-23T02:06:30.470Z,100066.39
2022-08-23T02:09:03.337Z,100068.88
2022-08-23T02:11:35.760Z,100043.13
2022-08-23T02:14:07.810Z,100017.92
2022-08-23T02:16:39.749Z,100003.28
2022-08-23T02:19:11.063Z,100012.77
2022-08-23T02:21:40.326Z,100005.43
2022-08-23T02:24:12.734Z,100003.59
2022-08-23T02:26:46.459Z,100007.79
2022-08-23T02:29:15.073Z,100004.95
2022-08-23T02:31:45.348Z,99997.75
2022-08-23T02:34:15.669Z,99996.26
2022-08-23T02:36:46.450Z,99996.26
2022-08-23T02:39:16.673Z,99994.91
2022-08-23T02:41:45.423Z,99999.41
2022-08-23T02:44:15.172Z,100001.11
2022-08-23T02:46:44.460Z,99990.73
2022-08-23T02:49:13.845Z,99996.20
2022-08-23T02:51:42.773Z,99999.18
2022-08-23T02:54:12.034Z,99986.55
2022-08-23T02:56:41.571Z,99986.53
2022-08-23T02:59:10.420Z,99993.02
2022-08-23T03:01:40.005Z,99996.95
2022-08-23T03:04:11.016Z,99992.80
2022-08-23T03:06:40.051Z,99987.34
2022-08-23T03:09:09.400Z,99984.30
2022-08-23T03:11:38.694Z,99987.47
2022-08-23T03:14:07.461Z,99985.87
2022-08-23T03:16:36.749Z,99984.78
2022-08-23T03:19:06.519Z,99972.48
2022-08-23T03:21:35.230Z,99969.74
2022-08-23T03:24:09.529Z,99981.09
2022-08-23T03:26:35.017Z,99991.61
2022-08-23T03:29:04.589Z,100004.47
2022-08-23T03:31:36.548Z,100003.69
2022-08-23T03:34:08.291Z,100007.98
2022-08-23T03:36:37.733Z,100005.50
2022-08-23T03:39:06.993Z,100000.81
2022-08-23T03:41:35.833Z,100004.16
2022-08-23T03:44:05.066Z,100000.80
2022-08-23T03:46:36.123Z,99995.96
2022-08-23T03:49:05.989Z,99993.63
2022-08-23T03:51:42.425Z,99992.45
2022-08-23T03:54:11.207Z,99988.61
2022-08-23T03:56:42.873Z,99992.11
2022-08-23T03:59:11.965Z,99997.80
2022-08-23T04:01:40.831Z,100008.48
2022-08-23T04:04:09.859Z,100010.16
2022-08-23T04:06:41.281Z,99999.34
2022-08-23T04:09:10.252Z,99982.00
2022-08-23T04:11:40.889Z,99979.45
2022-08-23T04:14:09.878Z,99977.47
2022-08-23T04:16:39.882Z,99987.61
2022-08-23T04:19:12.880Z,99989.83
2022-08-23T04:21:46.328Z,99991.09
2022-08-23T04:24:15.834Z,99993.79
2022-08-23T04:26:45.746Z,99988.97
2022-08-23T04:29:19.486Z,99990.77
2022-08-23T04:31:48.990Z,99981.77
2022-08-23T04:34:20.551Z,99985.13
2022-08-23T04:36:55.094Z,99986.32
2022-08-23T04:39:21.060Z,99988.60
2022-08-23T04:42:11.127Z,99985.44
2022-08-23T04:44:40.956Z,99981.12
2022-08-23T04:47:09.994Z,99981.13
2022-08-23T04:49:38.947Z,99987.77
2022-08-23T04:52:07.838Z,99986.45
2022-08-23T04:54:37.076Z,99990.98
2022-08-23T04:57:19.345Z,99989.78
2022-08-23T04:59:49.156Z,100000.47
2022-08-23T05:02:20.031Z,100011.16
2022-08-23T05:04:48.884Z,100026.06
2022-08-23T05:07:17.663Z,100039.20
2022-08-23T05:09:46.579Z,100046.02
2022-08-23T05:12:15.299Z,100047.06
2022-08-23T05:14:44.328Z,100051.55
2022-08-23T05:17:14.572Z,100050.20
2022-08-23T05:19:47.170Z,100063.84
2022-08-23T05:22:14.927Z,100063.34
2022-08-23T05:24:45.521Z,100061.42
2022-08-23T05:27:14.495Z,100054.21
2022-08-23T05:29:43.352Z,100064.18
2022-08-23T05:32:12.143Z,100058.16
2022-08-23T05:34:40.934Z,100054.24
2022-08-23T05:37:11.434Z,100057.72
2022-08-23T05:39:42.314Z,100061.58
2022-08-23T05:42:12.839Z,100053.41
2022-08-23T05:44:42.212Z,100055.14
2022-08-23T05:47:15.614Z,100051.53
2022-08-23T05:49:54.744Z,100060.70
2022-08-23T05:52:23.724Z,100055.67
2022-08-23T05:54:52.616Z,100056.03
2022-08-23T05:57:25.708Z,100057.86
2022-08-23T05:59:54.594Z,100058.75
2022-08-23T06:02:23.324Z,100058.58
2022-08-23T06:04:56.748Z,100057.23
2022-08-23T06:07:22.694Z,100059.68
2022-08-23T06:09:52.659Z,100066.05
2022-08-23T06:12:21.456Z,100072.56
2022-08-23T06:14:50.337Z,100077.08
2022-08-23T06:17:20.829Z,100073.72
2022-08-23T06:19:49.827Z,100076.88
2022-08-23T06:22:30.810Z,100076.88
2022-08-23T06:25:00.755Z,100073.48
2022-08-23T06:27:31.202Z,100077.09
2022-08-23T06:29:59.928Z,100080.72
2022-08-23T06:32:36.628Z,100090.60
2022-08-23T06:35:37.954Z,100090.61
2022-08-23T06:37:58.641Z,100097.94
2022-08-23T06:40:47.041Z,100095.16
2022-08-23T06:43:20.746Z,100097.47
2022-08-23T06:45:58.123Z,100096.31
2022-08-23T06:48:25.388Z,100094.16
2022-08-23T06:50:54.271Z,100100.89
2022-08-23T06:53:24.765Z,100102.22
2022-08-23T06:56:01.551Z,100103.61
2022-08-23T06:58:37.714Z,100106.78
2022-08-23T07:01:18.790Z,100102.47
2022-08-23T07:03:45.422Z,100095.98
2022-08-23T07:06:33.172Z,100099.84
2022-08-23T07:09:02.439Z,100096.00
2022-08-23T07:11:32.887Z,100088.17
2022-08-23T07:14:02.779Z,100086.52
2022-08-23T07:16:35.749Z,100085.34
2022-08-23T07:19:05.816Z,100086.05
2022-08-23T07:21:35.740Z,100080.53
2022-08-23T07:24:04.823Z,100084.23
2022-08-23T07:26:34.192Z,100090.27
2022-08-23T07:29:07.540Z,100095.29
2022-08-23T07:31:37.964Z,100091.27
2022-08-23T07:34:07.006Z,100099.80
2022-08-23T07:36:38.588Z,100100.95
2022-08-23T07:39:07.882Z,100104.33
2022-08-23T07:41:38.749Z,100110.52
2022-08-23T07:44:10.484Z,100109.19
2022-08-23T07:46:41.008Z,100106.66
2022-08-23T07:49:11.237Z,100117.05
2022-08-23T07:51:42.582Z,100115.19
2022-08-23T07:54:11.528Z,100120.20
2022-08-23T07:56:47.641Z,100123.23
2022-08-23T07:59:19.296Z,100121.72
2022-08-23T08:01:52.880Z,100126.87
2022-08-23T08:04:23.319Z,100124.33
2022-08-23T08:07:16.898Z,100126.86
2022-08-23T08:09:23.561Z,100133.21
2022-08-23T08:11:52.526Z,100130.55
2022-08-23T08:14:22.963Z,100128.09
2022-08-23T08:16:58.650Z,100129.94
2022-08-23T08:19:35.060Z,100132.13
2022-08-23T08:22:05.573Z,100136.80
2022-08-23T08:24:50.607Z,100137.12
2022-08-23T08:27:21.620Z,100132.96
2022-08-23T08:29:50.502Z,100132.64
2022-08-23T08:32:21.169Z,100133.80
2022-08-23T08:34:50.302Z,100125.77
2022-08-23T08:37:19.250Z,100127.44
2022-08-23T08:39:48.044Z,100124.09
2022-08-23T08:42:22.367Z,100129.44
2022-08-23T08:44:55.881Z,100139.65
2022-08-23T08:47:43.127Z,100146.86
2022-08-23T08:50:14.473Z,100149.36
2022-08-23T08:52:45.075Z,100146.84
2022-08-23T08:55:17.074Z,100141.48
2022-08-23T08:57:48.418Z,100143.82
2022-08-23T09:00:22.503Z,100145.00
2022-08-23T09:02:52.102Z,100141.12
2022-08-23T09:05:22.425Z,100152.53
2022-08-23T09:08:09.283Z,100148.19
2022-08-23T09:13:21.691Z,100163.59
2022-08-23T09:15:55.496Z,100163.89
2022-08-23T09:18:24.458Z,100164.44
2022-08-23T09:20:55.746Z,100159.91
2022-08-23T09:23:27.880Z,100164.94
2022-08-23T09:26:03.502Z,100159.25
2022-08-23T09:28:34.655Z,100158.73
2022-08-23T09:31:04.046Z,100166.40
2022-08-23T09:33:40.867Z,100166.89
2022-08-23T09:36:18.790Z,100161.88
2022-08-23T09:38:56.794Z,100167.25
2022-08-23T09:41:27.944Z,100167.56
2022-08-23T09:44:00.182Z,100167.73
2022-08-23T09:46:35.820Z,100164.05
2022-08-23T09:49:25.436Z,100163.22
2022-08-23T09:51:57.229Z,100156.85
2022-08-23T09:54:37.143Z,100159.52
2022-08-23T09:57:10.746Z,100156.18
2022-08-23T09:59:40.971Z,100160.55
2022-08-23T10:02:30.914Z,100154.50
2022-08-23T10:05:03.634Z,100160.36
2022-08-23T10:07:35.354Z,100167.22
2022-08-23T10:10:24.666Z,100175.73
2022-08-23T10:12:56.605Z,100174.21
2022-08-23T10:15:27.110Z,100170.69
2022-08-23T10:17:57.730Z,100177.40
2022-08-23T10:20:40.562Z,100174.55
2022-08-23T10:23:19.822Z,100176.17
2022-08-23T10:25:57.806Z,100177.92
2022-08-23T10:28:56.091Z,100177.33
2022-08-23T10:31:29.426Z,100177.72
2022-08-23T10:34:16.629Z,100181.74
2022-08-23T10:37:03.616Z,100186.20
2022-08-23T10:39:32.878Z,100189.57
2022-08-23T10:42:07.126Z,100189.05
2022-08-23T10:44:37.467Z,100186.14
2022-08-23T10:47:08.061Z,100184.13
2022-08-23T10:49:39.480Z,100181.16
2022-08-23T10:52:10.171Z,100184.96
2022-08-23T10:54:42.411Z,100184.84
2022-08-23T10:57:13.072Z,100187.72
2022-08-23T10:59:44.254Z,100192.91
2022-08-23T11:02:29.724Z,100195.50
2022-08-23T11:05:05.592Z,100198.20
2022-08-23T11:07:43.822Z,100197.05
2022-08-23T11:10:34.759Z,100196.19
2022-08-23T11:13:06.282Z,100199.13
2022-08-23T11:15:41.390Z,100202.05
2022-08-23T11:18:12.139Z,100200.23
2022-08-23T11:20:54.303Z,100200.91
2022-08-23T11:23:42.761Z,100190.51
2022-08-23T11:26:13.429Z,100192.01
2022-08-23T11:28:43.739Z,100199.91
2022-08-23T11:31:14.166Z,100194.52
2022-08-23T11:33:44.535Z,100193.18
2022-08-23T11:36:17.965Z,100194.20
2022-08-23T11:38:50.957Z,100196.93
2022-08-23T11:41:21.469Z,100199.78
2022-08-23T11:43:51.907Z,100201.45
2022-08-23T11:46:30.380Z,100203.64
2022-08-23T11:49:18.969Z,100207.53
2022-08-23T11:51:52.372Z,100205.00
2022-08-23T11:54:27.478Z,100209.70
2022-08-23T11:56:57.568Z,100206.34
2022-08-23T11:59:29.532Z,100209.37
2022-08-23T12:01:59.552Z,100205.17
2022-08-23T12:04:29.874Z,100209.19
2022-08-23T12:07:00.919Z,100206.29
2022-08-23T12:09:31.242Z,100215.17
2022-08-23T12:12:02.154Z,100208.87
2022-08-23T12:14:38.650Z,100204.94
2022-08-23T12:17:15.322Z,100208.14
2022-08-23T12:19:46.776Z,100206.16
2022-08-23T12:22:18.658Z,100203.11
2022-08-23T12:24:52.656Z,100202.34
2022-08-23T12:27:28.864Z,100209.56
2022-08-23T12:30:05.456Z,100207.31
2022-08-23T12:32:35.667Z,100206.55
2022-08-23T12:35:22.804Z,100209.09
2022-08-23T12:37:53.029Z,100203.89
2022-08-23T12:40:35.170Z,100205.41
2022-08-23T12:43:10.900Z,100206.75
2022-08-23T12:45:42.840Z,100198.64
2022-08-23T12:48:13.363Z,100199.83
2022-08-23T12:50:43.890Z,100202.00
2022-08-23T12:53:14.485Z,100204.16
2022-08-23T12:55:44.721Z,100204.88
2022-08-23T12:58:15.168Z,100211.74
2022-08-23T13:00:54.781Z,100209.59
2022-08-23T13:03:25.204Z,100209.70
2022-08-23T13:05:55.464Z,100208.89
2022-08-23T13:08:34.214Z,100215.77
2022-08-23T13:10:58.908Z,100212.96
2022-08-23T13:13:28.832Z,100206.34
2022-08-23T13:15:59.130Z,100210.82
2022-08-23T13:18:32.140Z,100205.53
2022-08-23T13:21:18.726Z,100211.26
2022-08-23T13:23:48.083Z,100208.35
2022-08-23T13:26:27.620Z,100209.70
2022-08-23T13:29:09.846Z,100214.56
2022-08-23T13:32:02.675Z,100217.61
2022-08-23T13:34:37.446Z,100208.33
2022-08-23T13:37:17.928Z,100211.17
2022-08-23T13:39:51.342Z,100208.69
2022-08-23T13:42:36.778Z,100215.71
2022-08-23T13:45:16.029Z,100204.84
2022-08-23T13:47:49.169Z,100212.02
2022-08-23T13:50:19.379Z,100208.14
2022-08-23T13:53:13.514Z,100208.17
2022-08-23T13:55:18.516Z,100212.88
2022-08-23T13:57:47.328Z,100212.08
2022-08-23T14:00:19.450Z,100207.59
2022-08-23T14:02:48.738Z,100216.61
2022-08-23T14:05:19.220Z,100214.15
2022-08-23T14:07:50.747Z,100219.36
2022-08-23T14:10:20.282Z,100223.33
2022-08-23T14:12:50.057Z,100221.35
2022-08-23T14:15:19.502Z,100220.88
2022-08-23T14:17:50.030Z,100217.19
2022-08-23T14:20:44.086Z,100221.20
2022-08-23T14:22:50.799Z,100216.69
2022-08-23T14:25:19.612Z,100212.91
2022-08-23T14:27:49.122Z,100214.25
2022-08-23T14:30:29.537Z,100217.00
2022-08-23T14:32:58.772Z,100217.67
2022-08-23T14:35:28.592Z,100218.70
2022-08-23T14:38:05.278Z,100226.57
2022-08-23T14:40:28.784Z,100224.89
2022-08-23T14:42:57.548Z,100219.87
2022-08-23T14:45:27.523Z,100218.36
2022-08-23T14:47:56.327Z,100214.84
2022-08-23T14:50:25.079Z,100216.00
2022-08-23T14:52:55.494Z,100215.00
2022-08-23T14:55:25.204Z,100209.29
2022-08-23T14:57:55.089Z,100201.58
2022-08-23T15:00:23.982Z,100207.27
2022-08-23T15:02:53.047Z,100202.09
2022-08-23T15:05:21.771Z,100206.63
2022-08-23T15:07:51.244Z,100207.79
2022-08-23T15:13:12.902Z,100208.78
2022-08-23T15:15:22.277Z,100204.08
2022-08-23T15:17:52.673Z,100209.28
2022-08-23T15:20:22.766Z,100212.12
2022-08-23T15:22:56.276Z,100212.79
2022-08-23T15:25:26.694Z,100213.80
2022-08-23T15:27:55.631Z,100215.74
2022-08-23T15:30:25.452Z,100216.55
2022-08-23T15:33:03.815Z,100217.33
2022-08-23T15:35:25.845Z,100218.68
2022-08-23T15:37:56.344Z,100228.25
2022-08-23T15:40:25.829Z,100224.73
2022-08-23T15:42:54.771Z,100220.13
2022-08-23T15:45:23.660Z,100220.69
2022-08-23T15:47:53.882Z,100230.28
2022-08-23T15:50:24.629Z,100232.09
2022-08-23T15:52:53.460Z,100233.95
2022-08-23T15:55:22.837Z,100234.13
2022-08-23T15:57:53.065Z,100230.95
2022-08-23T16:00:22.650Z,100236.02
2022-08-23T16:03:18.685Z,100232.83
2022-08-23T16:05:22.603Z,100231.52
2022-08-23T16:07:52.828Z,100228.32
2022-08-23T16:10:22.634Z,100230.66
2022-08-23T16:12:51.371Z,100233.17
2022-08-23T16:15:20.274Z,100232.19
2022-08-23T16:17:49.932Z,100229.50
2022-08-23T16:20:18.645Z,100239.56
2022-08-23T16:22:47.362Z,100237.55
2022-08-23T16:25:16.371Z,100243.26
2022-08-23T16:27:45.130Z,100247.13
2022-08-23T16:30:14.316Z,100246.43
2022-08-23T16:32:43.158Z,100256.02
2022-08-23T16:35:11.863Z,100254.84
2022-08-23T16:37:41.010Z,100256.86
2022-08-23T16:40:10.257Z,100253.67
2022-08-23T16:42:39.155Z,100257.36
2022-08-23T16:45:08.571Z,100257.70
2022-08-23T16:47:38.876Z,100260.87
2022-08-23T16:50:07.958Z,100261.06
2022-08-23T16:52:36.902Z,100261.73
2022-08-23T16:55:07.217Z,100269.48
2022-08-23T16:57:36.461Z,100275.19
2022-08-23T17:00:08.115Z,100276.70
2022-08-23T17:02:37.720Z,100273.68
2022-08-23T17:05:07.994Z,100271.45
2022-08-23T17:07:36.816Z,100269.45
2022-08-23T17:10:08.308Z,100279.22
2022-08-23T17:12:38.819Z,100280.06
2022-08-23T17:15:08.925Z,100279.34
2022-08-23T17:17:37.843Z,100281.91
2022-08-23T17:20:08.531Z,100284.20
2022-08-23T17:22:37.354Z,100291.97
2022-08-23T17:25:06.881Z,100291.80
2022-08-23T17:27:35.601Z,100296.83
2022-08-23T17:30:08.630Z,100300.32
2022-08-23T17:32:37.079Z,100310.09
2022-08-23T17:35:10.468Z,100309.08
2022-08-23T17:37:38.749Z,100308.58
2022-08-23T17:40:09.596Z,100316.97
2022-08-23T17:42:38.913Z,100321.83
2022-08-23T17:45:08.610Z,100315.28
2022-08-23T17:47:37.395Z,100318.14
2022-08-23T17:50:08.157Z,100316.80
2022-08-23T17:52:36.956Z,100317.30
2022-08-23T17:55:06.155Z,100316.30
2022-08-23T17:57:36.369Z,100312.77
2022-08-23T18:00:06.750Z,100315.45
2022-08-23T18:02:34.914Z,100314.62
2022-08-23T18:05:03.695Z,100320.48
2022-08-23T18:07:32.559Z,100323.34
2022-08-23T18:10:01.290Z,100325.02
2022-08-23T18:12:30.007Z,100320.66
2022-08-23T18:14:58.809Z,100325.34
2022-08-23T18:17:27.530Z,100326.19
2022-08-23T18:19:56.260Z,100330.72
2022-08-23T18:22:25.353Z,100338.13
2022-08-23T18:24:54.104Z,100339.80
2022-08-23T18:27:40.518Z,100343.65
2022-08-23T18:30:09.902Z,100343.48
2022-08-23T18:32:38.615Z,100345.16
2022-08-23T18:35:07.444Z,100352.87
2022-08-23T18:37:36.239Z,100351.70
2022-08-23T18:40:09.646Z,100345.83
2022-08-23T18:42:36.888Z,100345.83
2022-08-23T18:45:06.599Z,100350.36
2022-08-23T18:47:35.487Z,100352.87
2022-08-23T18:50:05.544Z,100358.56
2022-08-23T18:52:34.276Z,100362.91
2022-08-23T18:55:03.192Z,100361.93
2022-08-23T18:57:31.918Z,100359.90
2022-08-23T19:00:00.649Z,100367.12
2022-08-23T19:02:29.458Z,100361.08
2022-08-23T19:04:58.199Z,100372.48
2022-08-23T19:07:26.938Z,100379.53
2022-08-23T19:09:55.651Z,100377.34
2022-08-23T19:12:24.886Z,100372.48
2022-08-23T19:14:53.592Z,100374.66
2022-08-23T19:17:22.319Z,100373.49
2022-08-23T19:19:51.034Z,100378.02
2022-08-23T19:22:19.762Z,100381.20
2022-08-23T19:24:48.488Z,100377.51
2022-08-23T19:27:17.288Z,100380.86
2022-08-23T19:29:46.017Z,100379.51
2022-08-23T19:32:14.997Z,100385.21
2022-08-23T19:34:43.824Z,100389.91
2022-08-23T19:37:20.395Z,100393.09
2022-08-23T19:39:43.070Z,100396.95
2022-08-23T19:42:11.962Z,100401.97
2022-08-23T19:44:41.026Z,100401.63
2022-08-23T19:47:13.481Z,100407.34
2022-08-23T19:49:40.186Z,100407.52
2022-08-23T19:52:08.990Z,100406.00
2022-08-23T19:54:38.132Z,100411.38
2022-08-23T19:57:09.547Z,100411.38
2022-08-23T19:59:40.323Z,100408.36
2022-08-23T20:02:10.297Z,100408.19
2022-08-23T20:04:39.530Z,100401.82
2022-08-23T20:07:09.219Z,100405.84
2022-08-23T20:09:37.937Z,100400.30
2022-08-23T20:12:07.569Z,100400.50
2022-08-23T20:14:36.370Z,100398.13
2022-08-23T20:17:07.447Z,100385.72
2022-08-23T20:19:36.250Z,100388.59
2022-08-23T20:22:23.282Z,100393.59
2022-08-23T20:24:53.083Z,100390.59
2022-08-23T20:27:28.287Z,100388.75
2022-08-23T20:29:53.320Z,100392.43
2022-08-23T20:32:22.119Z,100396.11
2022-08-23T20:34:50.847Z,100397.45
2022-08-23T20:37:19.565Z,100396.95
2022-08-23T20:39:48.387Z,100400.15
2022-08-23T20:42:17.095Z,100401.83
2022-08-23T20:44:45.815Z,100405.52
2022-08-23T20:47:14.639Z,100403.67
2022-08-23T20:49:43.789Z,100404.02
2022-08-23T20:52:12.591Z,100401.49
2022-08-23T20:54:41.384Z,100402.33
2022-08-23T20:57:10.377Z,100400.81
2022-08-23T20:59:44.252Z,100399.81
2022-08-23T21:02:09.500Z,100402.49
2022-08-23T21:04:38.211Z,100402.16
2022-08-23T21:07:08.817Z,100398.12
2022-08-23T21:09:37.621Z,100399.80
2022-08-23T21:14:48.427Z,100403.33
2022-08-23T21:17:17.150Z,100401.81
2022-08-23T21:19:45.880Z,100402.14
2022-08-23T21:22:14.684Z,100401.13
2022-08-23T21:24:43.482Z,100401.47
2022-08-23T21:27:12.218Z,100399.47
2022-08-23T21:29:41.017Z,100388.91
2022-08-23T21:32:09.839Z,100381.89
2022-08-23T21:34:38.605Z,100382.22
2022-08-23T21:37:07.836Z,100380.54
2022-08-23T21:39:36.644Z,100380.22
2022-08-23T21:42:14.723Z,100382.73
2022-08-23T21:44:36.115Z,100382.05
2022-08-23T21:47:05.028Z,100382.89
2022-08-23T21:49:35.238Z,100378.86
2022-08-23T21:52:04.595Z,100376.70
2022-08-23T21:54:34.460Z,100369.63
2022-08-23T21:57:03.264Z,100364.25
2022-08-23T21:59:32.000Z,100362.77
2022-08-23T22:02:00.765Z,100359.56
2022-08-23T22:04:30.149Z,100355.20
2022-08-23T22:06:59.882Z,100361.41
2022-08-23T22:09:31.539Z,100360.41
2022-08-23T22:12:00.465Z,100363.09
2022-08-23T22:14:31.444Z,100361.76
2022-08-23T22:17:00.234Z,100361.25
2022-08-23T22:19:29.138Z,100361.41
2022-08-23T22:21:58.063Z,100365.27
2022-08-23T22:24:26.775Z,100367.30
2022-08-23T22:26:55.975Z,100361.92
2022-08-23T22:29:25.259Z,100372.14
2022-08-23T22:31:55.036Z,100375.00
2022-08-23T22:34:23.763Z,100374.98
2022-08-23T22:36:52.815Z,100376.84
2022-08-23T22:39:22.600Z,100372.16
2022-08-23T22:41:51.707Z,100369.47
2022-08-23T22:44:20.554Z,100368.78
2022-08-23T22:46:49.317Z,100372.82
2022-08-23T22:49:18.474Z,100370.98
2022-08-23T22:51:49.188Z,100372.16
2022-08-23T22:54:18.927Z,100367.62
2022-08-23T22:56:49.255Z,100369.82
2022-08-23T22:59:20.610Z,100369.98
2022-08-23T23:01:51.940Z,100371.14
2022-08-23T23:04:22.920Z,100371.32
2022-08-23T23:06:52.294Z,100375.50
2022-08-23T23:09:21.017Z,100375.17
2022-08-23T23:11:49.829Z,100374.17
2022-08-23T23:14:19.891Z,100380.88
2022-08-23T23:16:53.522Z,100383.91
2022-08-23T23:19:40.818Z,100384.56
2022-08-23T23:22:10.132Z,100381.72
2022-08-23T23:24:39.945Z,100384.24
2022-08-23T23:27:09.027Z,100385.74
2022-08-23T23:29:39.112Z,100386.23
2022-08-23T23:32:08.106Z,100389.27
2022-08-23T23:34:38.118Z,100392.45
2022-08-23T23:37:06.818Z,100390.94
2022-08-23T23:39:35.633Z,100402.34
2022-08-23T23:42:05.461Z,100401.34
2022-08-23T23:44:34.258Z,100403.53
2022-08-23T23:47:03.174Z,100402.86
2022-08-23T23:49:32.375Z,100399.66
2022-08-23T23:52:05.385Z,100396.47
2022-08-23T23:54:35.753Z,100398.33
2022-08-23T23:57:06.115Z,100396.80
2022-08-23T23:59:35.364Z,100407.53
